sensor_id;sensor_type;location;lat;lon;timestamp;P1;durP1;ratioP1;P2;durP2;ratioP2
17886;SDS011;9069;52.044;7.472;2022-07-29T00:02:14;3.17;;;1.05;;
17886;SDS011;9069;52.044;7.472;2022-07-29T00:04:41;3.35;;;1.00;;
17886;SDS011;9069;52.044;7.472;2022-07-29T00:07:08;2.50;;;0.88;;
17886;SDS011;9069;52.044;7.472;2022-07-29T00:09:35;2.92;;;0.80;;
17886;SDS011;9069;52.044;7.472;2022-07-29T00:12:18;1.73;;;0.93;;
17886;SDS011;9069;52.044;7.472;2022-07-29T00:14:55;3.15;;;0.85;;
17886;SDS011;9069;52.044;7.472;2022-07-29T00:17:25;1.35;;;0.80;;
17886;SDS011;9069;52.044;7.472;2022-07-29T00:19:52;1.02;;;0.70;;
17886;SDS011;9069;52.044;7.472;2022-07-29T00:22:19;4.35;;;0.90;;
17886;SDS011;9069;52.044;7.472;2022-07-29T00:24:47;3.60;;;0.88;;
17886;SDS011;9069;52.044;7.472;2022-07-29T00:27:15;3.05;;;0.73;;
17886;SDS011;9069;52.044;7.472;2022-07-29T00:29:42;2.17;;;1.00;;
17886;SDS011;9069;52.044;7.472;2022-07-29T00:32:09;0.70;;;0.70;;
17886;SDS011;9069;52.044;7.472;2022-07-29T00:34:36;2.13;;;0.68;;
17886;SDS011;9069;52.044;7.472;2022-07-29T00:37:21;4.00;;;0.90;;
17886;SDS011;9069;52.044;7.472;2022-07-29T00:39:48;1.75;;;1.00;;
17886;SDS011;9069;52.044;7.472;2022-07-29T00:42:14;1.40;;;0.70;;
17886;SDS011;9069;52.044;7.472;2022-07-29T00:44:42;5.90;;;0.90;;
17886;SDS011;9069;52.044;7.472;2022-07-29T00:47:10;1.92;;;0.82;;
17886;SDS011;9069;52.044;7.472;2022-07-29T00:49:38;1.63;;;0.88;;
17886;SDS011;9069;52.044;7.472;2022-07-29T00:52:06;4.90;;;0.80;;
17886;SDS011;9069;52.044;7.472;2022-07-29T00:54:35;4.93;;;1.02;;
17886;SDS011;9069;52.044;7.472;2022-07-29T00:57:09;2.58;;;1.00;;
17886;SDS011;9069;52.044;7.472;2022-07-29T00:59:36;3.10;;;1.25;;
17886;SDS011;9069;52.044;7.472;2022-07-29T01:02:03;3.08;;;1.42;;
17886;SDS011;9069;52.044;7.472;2022-07-29T01:04:30;1.70;;;0.98;;
17886;SDS011;9069;52.044;7.472;2022-07-29T01:06:57;2.08;;;0.98;;
17886;SDS011;9069;52.044;7.472;2022-07-29T01:09:26;2.00;;;0.80;;
17886;SDS011;9069;52.044;7.472;2022-07-29T01:12:18;4.35;;;1.10;;
17886;SDS011;9069;52.044;7.472;2022-07-29T01:14:48;5.05;;;0.80;;
17886;SDS011;9069;52.044;7.472;2022-07-29T01:17:24;3.25;;;1.08;;
17886;SDS011;9069;52.044;7.472;2022-07-29T01:31:08;2.00;;;0.90;;
17886;SDS011;9069;52.044;7.472;2022-07-29T01:33:51;4.75;;;1.30;;
17886;SDS011;9069;52.044;7.472;2022-07-29T01:36:37;3.53;;;1.20;;
17886;SDS011;9069;52.044;7.472;2022-07-29T01:42:16;2.75;;;0.90;;
17886;SDS011;9069;52.044;7.472;2022-07-29T01:45:03;3.28;;;0.90;;
17886;SDS011;9069;52.044;7.472;2022-07-29T01:50:26;2.08;;;1.02;;
17886;SDS011;9069;52.044;7.472;2022-07-29T01:53:04;2.10;;;1.05;;
17886;SDS011;9069;52.044;7.472;2022-07-29T01:55:34;2.53;;;1.10;;
17886;SDS011;9069;52.044;7.472;2022-07-29T01:58:04;2.80;;;1.00;;
17886;SDS011;9069;52.044;7.472;2022-07-29T02:00:33;2.17;;;0.90;;
17886;SDS011;9069;52.044;7.472;2022-07-29T02:03:02;1.92;;;1.13;;
17886;SDS011;9069;52.044;7.472;2022-07-29T02:05:32;2.67;;;1.05;;
17886;SDS011;9069;52.044;7.472;2022-07-29T02:08:01;6.30;;;1.27;;
17886;SDS011;9069;52.044;7.472;2022-07-29T02:10:31;2.78;;;0.95;;
17886;SDS011;9069;52.044;7.472;2022-07-29T02:12:59;4.93;;;0.93;;
17886;SDS011;9069;52.044;7.472;2022-07-29T02:15:30;1.88;;;1.08;;
17886;SDS011;9069;52.044;7.472;2022-07-29T02:18:01;3.38;;;0.93;;
17886;SDS011;9069;52.044;7.472;2022-07-29T02:20:32;1.67;;;1.00;;
17886;SDS011;9069;52.044;7.472;2022-07-29T02:23:00;6.07;;;1.30;;
17886;SDS011;9069;52.044;7.472;2022-07-29T02:25:28;2.90;;;0.95;;
17886;SDS011;9069;52.044;7.472;2022-07-29T02:28:03;3.95;;;1.00;;
17886;SDS011;9069;52.044;7.472;2022-07-29T02:30:32;1.42;;;1.02;;
17886;SDS011;9069;52.044;7.472;2022-07-29T02:33:02;2.97;;;1.20;;
17886;SDS011;9069;52.044;7.472;2022-07-29T02:35:30;4.80;;;0.98;;
17886;SDS011;9069;52.044;7.472;2022-07-29T02:38:00;1.83;;;0.70;;
17886;SDS011;9069;52.044;7.472;2022-07-29T02:40:46;1.75;;;0.80;;
17886;SDS011;9069;52.044;7.472;2022-07-29T02:43:14;2.05;;;1.02;;
17886;SDS011;9069;52.044;7.472;2022-07-29T02:45:41;1.80;;;1.00;;
17886;SDS011;9069;52.044;7.472;2022-07-29T02:48:10;3.20;;;1.13;;
17886;SDS011;9069;52.044;7.472;2022-07-29T02:50:44;2.70;;;1.23;;
17886;SDS011;9069;52.044;7.472;2022-07-29T02:53:18;4.85;;;0.82;;
17886;SDS011;9069;52.044;7.472;2022-07-29T02:55:49;3.15;;;1.05;;
17886;SDS011;9069;52.044;7.472;2022-07-29T02:58:22;2.97;;;1.20;;
17886;SDS011;9069;52.044;7.472;2022-07-29T03:01:01;3.38;;;1.20;;
17886;SDS011;9069;52.044;7.472;2022-07-29T03:03:36;2.80;;;1.02;;
17886;SDS011;9069;52.044;7.472;2022-07-29T03:06:05;6.68;;;1.17;;
17886;SDS011;9069;52.044;7.472;2022-07-29T03:08:53;2.53;;;1.17;;
17886;SDS011;9069;52.044;7.472;2022-07-29T03:11:21;3.95;;;1.08;;
17886;SDS011;9069;52.044;7.472;2022-07-29T03:14:08;4.60;;;1.08;;
17886;SDS011;9069;52.044;7.472;2022-07-29T03:16:37;1.15;;;0.77;;
17886;SDS011;9069;52.044;7.472;2022-07-29T03:19:06;2.20;;;0.95;;
17886;SDS011;9069;52.044;7.472;2022-07-29T03:21:33;2.58;;;0.85;;
17886;SDS011;9069;52.044;7.472;2022-07-29T03:24:00;2.17;;;0.90;;
17886;SDS011;9069;52.044;7.472;2022-07-29T03:26:31;2.35;;;1.00;;
17886;SDS011;9069;52.044;7.472;2022-07-29T03:28:59;2.15;;;0.73;;
17886;SDS011;9069;52.044;7.472;2022-07-29T03:31:26;3.50;;;0.98;;
17886;SDS011;9069;52.044;7.472;2022-07-29T03:33:52;2.92;;;1.00;;
17886;SDS011;9069;52.044;7.472;2022-07-29T03:36:19;2.13;;;0.90;;
17886;SDS011;9069;52.044;7.472;2022-07-29T03:38:46;1.77;;;1.10;;
17886;SDS011;9069;52.044;7.472;2022-07-29T03:41:14;1.60;;;1.20;;
17886;SDS011;9069;52.044;7.472;2022-07-29T03:43:47;3.10;;;0.70;;
17886;SDS011;9069;52.044;7.472;2022-07-29T03:46:15;1.63;;;0.90;;
17886;SDS011;9069;52.044;7.472;2022-07-29T03:48:45;2.72;;;1.10;;
17886;SDS011;9069;52.044;7.472;2022-07-29T03:51:16;1.80;;;0.90;;
17886;SDS011;9069;52.044;7.472;2022-07-29T03:53:58;1.95;;;0.90;;
17886;SDS011;9069;52.044;7.472;2022-07-29T03:56:25;2.15;;;0.93;;
17886;SDS011;9069;52.044;7.472;2022-07-29T03:58:54;6.22;;;1.20;;
17886;SDS011;9069;52.044;7.472;2022-07-29T04:01:22;2.90;;;0.98;;
17886;SDS011;9069;52.044;7.472;2022-07-29T04:03:49;1.75;;;0.88;;
17886;SDS011;9069;52.044;7.472;2022-07-29T04:06:17;2.88;;;1.20;;
17886;SDS011;9069;52.044;7.472;2022-07-29T04:08:43;5.40;;;1.27;;
17886;SDS011;9069;52.044;7.472;2022-07-29T04:11:10;3.47;;;1.42;;
17886;SDS011;9069;52.044;7.472;2022-07-29T04:13:37;1.92;;;1.13;;
17886;SDS011;9069;52.044;7.472;2022-07-29T04:16:04;3.45;;;1.08;;
17886;SDS011;9069;52.044;7.472;2022-07-29T04:18:31;6.75;;;1.20;;
17886;SDS011;9069;52.044;7.472;2022-07-29T04:20:57;2.28;;;0.90;;
17886;SDS011;9069;52.044;7.472;2022-07-29T04:23:27;2.22;;;1.20;;
17886;SDS011;9069;52.044;7.472;2022-07-29T04:25:58;1.85;;;0.85;;
17886;SDS011;9069;52.044;7.472;2022-07-29T04:28:27;3.55;;;1.20;;
17886;SDS011;9069;52.044;7.472;2022-07-29T04:30:54;4.30;;;1.30;;
17886;SDS011;9069;52.044;7.472;2022-07-29T04:33:20;4.35;;;1.15;;
17886;SDS011;9069;52.044;7.472;2022-07-29T04:35:50;3.08;;;1.17;;
17886;SDS011;9069;52.044;7.472;2022-07-29T04:38:20;1.67;;;0.90;;
17886;SDS011;9069;52.044;7.472;2022-07-29T04:40:46;3.25;;;1.10;;
17886;SDS011;9069;52.044;7.472;2022-07-29T04:43:15;2.67;;;0.98;;
17886;SDS011;9069;52.044;7.472;2022-07-29T04:45:47;2.83;;;1.00;;
17886;SDS011;9069;52.044;7.472;2022-07-29T04:48:14;3.42;;;1.13;;
17886;SDS011;9069;52.044;7.472;2022-07-29T04:50:41;1.77;;;1.10;;
17886;SDS011;9069;52.044;7.472;2022-07-29T04:53:08;4.55;;;1.38;;
17886;SDS011;9069;52.044;7.472;2022-07-29T04:55:34;2.50;;;1.00;;
17886;SDS011;9069;52.044;7.472;2022-07-29T04:58:04;6.10;;;1.27;;
17886;SDS011;9069;52.044;7.472;2022-07-29T05:00:31;5.45;;;1.10;;
17886;SDS011;9069;52.044;7.472;2022-07-29T05:02:58;3.10;;;1.15;;
17886;SDS011;9069;52.044;7.472;2022-07-29T05:05:25;6.75;;;1.77;;
17886;SDS011;9069;52.044;7.472;2022-07-29T05:07:52;3.22;;;1.02;;
17886;SDS011;9069;52.044;7.472;2022-07-29T05:10:19;4.70;;;1.27;;
17886;SDS011;9069;52.044;7.472;2022-07-29T05:12:46;4.53;;;0.85;;
17886;SDS011;9069;52.044;7.472;2022-07-29T05:15:13;3.47;;;1.23;;
17886;SDS011;9069;52.044;7.472;2022-07-29T05:17:40;2.72;;;1.20;;
17886;SDS011;9069;52.044;7.472;2022-07-29T05:20:06;3.42;;;1.05;;
17886;SDS011;9069;52.044;7.472;2022-07-29T05:22:33;2.17;;;1.08;;
17886;SDS011;9069;52.044;7.472;2022-07-29T05:25:00;1.45;;;1.02;;
17886;SDS011;9069;52.044;7.472;2022-07-29T05:27:34;1.23;;;1.10;;
17886;SDS011;9069;52.044;7.472;2022-07-29T05:30:02;2.60;;;1.15;;
17886;SDS011;9069;52.044;7.472;2022-07-29T05:32:29;2.38;;;1.10;;
17886;SDS011;9069;52.044;7.472;2022-07-29T05:34:56;2.08;;;1.17;;
17886;SDS011;9069;52.044;7.472;2022-07-29T05:37:22;2.67;;;0.95;;
17886;SDS011;9069;52.044;7.472;2022-07-29T05:39:49;2.13;;;1.20;;
17886;SDS011;9069;52.044;7.472;2022-07-29T05:42:22;5.20;;;1.15;;
17886;SDS011;9069;52.044;7.472;2022-07-29T05:44:50;3.03;;;0.90;;
17886;SDS011;9069;52.044;7.472;2022-07-29T05:47:17;1.90;;;1.15;;
17886;SDS011;9069;52.044;7.472;2022-07-29T05:49:44;1.98;;;1.00;;
17886;SDS011;9069;52.044;7.472;2022-07-29T05:52:12;1.88;;;1.20;;
17886;SDS011;9069;52.044;7.472;2022-07-29T05:54:39;1.60;;;0.95;;
17886;SDS011;9069;52.044;7.472;2022-07-29T05:57:06;3.50;;;1.17;;
17886;SDS011;9069;52.044;7.472;2022-07-29T05:59:36;3.83;;;1.20;;
17886;SDS011;9069;52.044;7.472;2022-07-29T06:02:03;3.90;;;1.10;;
17886;SDS011;9069;52.044;7.472;2022-07-29T06:04:31;3.45;;;1.33;;
17886;SDS011;9069;52.044;7.472;2022-07-29T06:06:58;2.17;;;0.90;;
17886;SDS011;9069;52.044;7.472;2022-07-29T06:09:25;1.35;;;1.00;;
17886;SDS011;9069;52.044;7.472;2022-07-29T06:11:52;2.13;;;1.15;;
17886;SDS011;9069;52.044;7.472;2022-07-29T06:14:19;3.55;;;0.93;;
17886;SDS011;9069;52.044;7.472;2022-07-29T06:16:45;4.10;;;1.33;;
17886;SDS011;9069;52.044;7.472;2022-07-29T06:19:12;5.00;;;1.63;;
17886;SDS011;9069;52.044;7.472;2022-07-29T06:21:42;4.72;;;1.20;;
17886;SDS011;9069;52.044;7.472;2022-07-29T06:24:10;4.70;;;1.27;;
17886;SDS011;9069;52.044;7.472;2022-07-29T06:26:39;4.20;;;1.23;;
17886;SDS011;9069;52.044;7.472;2022-07-29T06:29:06;1.35;;;1.02;;
17886;SDS011;9069;52.044;7.472;2022-07-29T06:31:34;4.38;;;1.10;;
17886;SDS011;9069;52.044;7.472;2022-07-29T06:34:00;2.35;;;1.10;;
17886;SDS011;9069;52.044;7.472;2022-07-29T06:36:28;3.08;;;1.15;;
17886;SDS011;9069;52.044;7.472;2022-07-29T06:38:55;1.25;;;0.95;;
17886;SDS011;9069;52.044;7.472;2022-07-29T06:41:22;4.68;;;1.17;;
17886;SDS011;9069;52.044;7.472;2022-07-29T06:43:49;3.03;;;1.30;;
17886;SDS011;9069;52.044;7.472;2022-07-29T06:46:22;2.60;;;1.40;;
17886;SDS011;9069;52.044;7.472;2022-07-29T06:48:49;3.42;;;1.27;;
17886;SDS011;9069;52.044;7.472;2022-07-29T06:51:18;1.48;;;0.95;;
17886;SDS011;9069;52.044;7.472;2022-07-29T06:53:48;5.00;;;1.75;;
17886;SDS011;9069;52.044;7.472;2022-07-29T06:56:29;5.43;;;1.20;;
17886;SDS011;9069;52.044;7.472;2022-07-29T06:59:05;6.60;;;1.02;;
17886;SDS011;9069;52.044;7.472;2022-07-29T07:01:34;5.63;;;1.05;;
17886;SDS011;9069;52.044;7.472;2022-07-29T07:04:06;5.30;;;1.25;;
17886;SDS011;9069;52.044;7.472;2022-07-29T07:06:34;4.55;;;1.38;;
17886;SDS011;9069;52.044;7.472;2022-07-29T07:09:02;5.32;;;1.38;;
17886;SDS011;9069;52.044;7.472;2022-07-29T07:11:29;5.10;;;1.40;;
17886;SDS011;9069;52.044;7.472;2022-07-29T07:13:56;3.58;;;1.75;;
17886;SDS011;9069;52.044;7.472;2022-07-29T07:16:28;6.70;;;1.35;;
17886;SDS011;9069;52.044;7.472;2022-07-29T07:18:55;4.18;;;1.40;;
17886;SDS011;9069;52.044;7.472;2022-07-29T07:21:22;3.67;;;1.35;;
17886;SDS011;9069;52.044;7.472;2022-07-29T07:23:48;6.85;;;1.52;;
17886;SDS011;9069;52.044;7.472;2022-07-29T07:26:15;1.40;;;1.30;;
17886;SDS011;9069;52.044;7.472;2022-07-29T07:28:42;4.72;;;1.15;;
17886;SDS011;9069;52.044;7.472;2022-07-29T07:31:08;3.05;;;1.35;;
17886;SDS011;9069;52.044;7.472;2022-07-29T07:33:35;3.30;;;1.65;;
17886;SDS011;9069;52.044;7.472;2022-07-29T07:36:02;4.10;;;1.30;;
17886;SDS011;9069;52.044;7.472;2022-07-29T07:38:29;1.75;;;1.17;;
17886;SDS011;9069;52.044;7.472;2022-07-29T07:40:56;4.40;;;1.55;;
17886;SDS011;9069;52.044;7.472;2022-07-29T07:43:22;3.67;;;1.30;;
17886;SDS011;9069;52.044;7.472;2022-07-29T07:45:49;3.45;;;1.48;;
17886;SDS011;9069;52.044;7.472;2022-07-29T07:48:16;3.55;;;1.42;;
17886;SDS011;9069;52.044;7.472;2022-07-29T07:50:43;6.97;;;1.40;;
17886;SDS011;9069;52.044;7.472;2022-07-29T07:53:10;4.43;;;1.50;;
17886;SDS011;9069;52.044;7.472;2022-07-29T07:55:40;3.58;;;1.35;;
17886;SDS011;9069;52.044;7.472;2022-07-29T07:58:27;5.88;;;1.20;;
17886;SDS011;9069;52.044;7.472;2022-07-29T08:00:54;5.72;;;1.30;;
17886;SDS011;9069;52.044;7.472;2022-07-29T08:03:21;2.38;;;1.38;;
17886;SDS011;9069;52.044;7.472;2022-07-29T08:05:48;3.67;;;1.27;;
17886;SDS011;9069;52.044;7.472;2022-07-29T08:08:16;4.00;;;1.35;;
17886;SDS011;9069;52.044;7.472;2022-07-29T08:10:43;7.32;;;1.58;;
17886;SDS011;9069;52.044;7.472;2022-07-29T08:13:20;3.47;;;1.55;;
17886;SDS011;9069;52.044;7.472;2022-07-29T08:15:48;4.82;;;1.17;;
17886;SDS011;9069;52.044;7.472;2022-07-29T08:18:24;3.65;;;1.25;;
17886;SDS011;9069;52.044;7.472;2022-07-29T08:20:52;3.78;;;1.63;;
17886;SDS011;9069;52.044;7.472;2022-07-29T08:23:19;6.88;;;1.42;;
17886;SDS011;9069;52.044;7.472;2022-07-29T08:25:46;3.60;;;1.40;;
17886;SDS011;9069;52.044;7.472;2022-07-29T08:28:16;3.08;;;1.40;;
17886;SDS011;9069;52.044;7.472;2022-07-29T08:30:43;5.20;;;1.58;;
17886;SDS011;9069;52.044;7.472;2022-07-29T08:33:09;4.72;;;1.38;;
17886;SDS011;9069;52.044;7.472;2022-07-29T08:35:36;5.53;;;1.70;;
17886;SDS011;9069;52.044;7.472;2022-07-29T08:38:05;6.55;;;1.50;;
17886;SDS011;9069;52.044;7.472;2022-07-29T08:40:31;8.45;;;1.73;;
17886;SDS011;9069;52.044;7.472;2022-07-29T08:42:59;9.18;;;2.08;;
17886;SDS011;9069;52.044;7.472;2022-07-29T08:45:35;4.03;;;1.35;;
17886;SDS011;9069;52.044;7.472;2022-07-29T08:48:20;2.17;;;1.35;;
17886;SDS011;9069;52.044;7.472;2022-07-29T08:50:49;2.15;;;1.38;;
17886;SDS011;9069;52.044;7.472;2022-07-29T08:53:21;8.02;;;1.90;;
17886;SDS011;9069;52.044;7.472;2022-07-29T08:55:52;4.65;;;1.55;;
17886;SDS011;9069;52.044;7.472;2022-07-29T08:58:19;4.15;;;1.40;;
17886;SDS011;9069;52.044;7.472;2022-07-29T09:00:54;3.80;;;1.55;;
17886;SDS011;9069;52.044;7.472;2022-07-29T09:03:24;3.28;;;1.30;;
17886;SDS011;9069;52.044;7.472;2022-07-29T09:05:53;1.88;;;1.50;;
17886;SDS011;9069;52.044;7.472;2022-07-29T09:08:20;3.25;;;1.55;;
17886;SDS011;9069;52.044;7.472;2022-07-29T09:10:47;4.97;;;1.20;;
17886;SDS011;9069;52.044;7.472;2022-07-29T09:13:14;4.70;;;1.55;;
17886;SDS011;9069;52.044;7.472;2022-07-29T09:15:41;3.08;;;1.30;;
17886;SDS011;9069;52.044;7.472;2022-07-29T09:18:07;4.40;;;1.65;;
17886;SDS011;9069;52.044;7.472;2022-07-29T09:20:54;12.10;;;1.80;;
17886;SDS011;9069;52.044;7.472;2022-07-29T09:23:39;5.78;;;1.90;;
17886;SDS011;9069;52.044;7.472;2022-07-29T09:26:07;3.40;;;1.73;;
17886;SDS011;9069;52.044;7.472;2022-07-29T09:28:34;6.22;;;1.45;;
17886;SDS011;9069;52.044;7.472;2022-07-29T09:31:07;3.92;;;1.70;;
17886;SDS011;9069;52.044;7.472;2022-07-29T09:33:34;5.63;;;1.48;;
17886;SDS011;9069;52.044;7.472;2022-07-29T09:36:05;6.93;;;2.38;;
17886;SDS011;9069;52.044;7.472;2022-07-29T09:38:33;2.55;;;1.50;;
17886;SDS011;9069;52.044;7.472;2022-07-29T09:41:02;6.55;;;1.80;;
17886;SDS011;9069;52.044;7.472;2022-07-29T09:43:31;7.47;;;2.00;;
17886;SDS011;9069;52.044;7.472;2022-07-29T09:46:12;4.32;;;1.63;;
17886;SDS011;9069;52.044;7.472;2022-07-29T09:48:39;4.13;;;1.73;;
17886;SDS011;9069;52.044;7.472;2022-07-29T09:51:16;6.40;;;1.52;;
17886;SDS011;9069;52.044;7.472;2022-07-29T09:53:55;3.72;;;1.77;;
17886;SDS011;9069;52.044;7.472;2022-07-29T09:56:40;3.15;;;1.60;;
17886;SDS011;9069;52.044;7.472;2022-07-29T09:59:08;3.50;;;1.70;;
17886;SDS011;9069;52.044;7.472;2022-07-29T10:01:37;3.00;;;1.77;;
17886;SDS011;9069;52.044;7.472;2022-07-29T10:04:03;3.22;;;1.80;;
17886;SDS011;9069;52.044;7.472;2022-07-29T10:06:30;3.30;;;1.80;;
17886;SDS011;9069;52.044;7.472;2022-07-29T10:09:07;4.78;;;1.80;;
17886;SDS011;9069;52.044;7.472;2022-07-29T10:11:35;5.43;;;1.98;;
17886;SDS011;9069;52.044;7.472;2022-07-29T10:14:15;4.88;;;1.85;;
17886;SDS011;9069;52.044;7.472;2022-07-29T10:16:42;5.35;;;1.83;;
17886;SDS011;9069;52.044;7.472;2022-07-29T10:19:09;6.20;;;2.55;;
17886;SDS011;9069;52.044;7.472;2022-07-29T10:21:36;3.97;;;1.98;;
17886;SDS011;9069;52.044;7.472;2022-07-29T10:24:05;8.80;;;2.10;;
17886;SDS011;9069;52.044;7.472;2022-07-29T10:26:40;4.90;;;2.40;;
17886;SDS011;9069;52.044;7.472;2022-07-29T10:29:08;4.53;;;1.80;;
17886;SDS011;9069;52.044;7.472;2022-07-29T10:31:42;4.90;;;2.17;;
17886;SDS011;9069;52.044;7.472;2022-07-29T10:34:19;6.07;;;2.13;;
17886;SDS011;9069;52.044;7.472;2022-07-29T10:37:20;6.43;;;1.90;;
17886;SDS011;9069;52.044;7.472;2022-07-29T10:43:14;3.85;;;2.13;;
17886;SDS011;9069;52.044;7.472;2022-07-29T10:45:54;4.10;;;1.80;;
17886;SDS011;9069;52.044;7.472;2022-07-29T10:48:23;7.78;;;1.98;;
17886;SDS011;9069;52.044;7.472;2022-07-29T10:53:23;3.38;;;1.77;;
17886;SDS011;9069;52.044;7.472;2022-07-29T10:55:52;6.22;;;1.90;;
17886;SDS011;9069;52.044;7.472;2022-07-29T10:58:19;4.90;;;2.33;;
17886;SDS011;9069;52.044;7.472;2022-07-29T11:00:57;4.65;;;1.90;;
17886;SDS011;9069;52.044;7.472;2022-07-29T11:04:04;4.60;;;1.80;;
17886;SDS011;9069;52.044;7.472;2022-07-29T11:09:31;5.80;;;1.60;;
17886;SDS011;9069;52.044;7.472;2022-07-29T11:12:04;6.38;;;2.00;;
17886;SDS011;9069;52.044;7.472;2022-07-29T11:15:14;6.20;;;2.13;;
17886;SDS011;9069;52.044;7.472;2022-07-29T11:45:04;5.15;;;2.17;;
17886;SDS011;9069;52.044;7.472;2022-07-29T11:47:54;5.28;;;1.85;;
17886;SDS011;9069;52.044;7.472;2022-07-29T11:50:46;4.10;;;2.13;;
17886;SDS011;9069;52.044;7.472;2022-07-29T11:53:13;7.00;;;1.92;;
17886;SDS011;9069;52.044;7.472;2022-07-29T11:55:41;8.52;;;2.13;;
17886;SDS011;9069;52.044;7.472;2022-07-29T11:58:21;2.28;;;1.92;;
17886;SDS011;9069;52.044;7.472;2022-07-29T12:00:52;2.95;;;1.90;;
17886;SDS011;9069;52.044;7.472;2022-07-29T12:03:25;5.35;;;1.80;;
17886;SDS011;9069;52.044;7.472;2022-07-29T12:06:13;3.40;;;1.80;;
17886;SDS011;9069;52.044;7.472;2022-07-29T12:08:43;3.08;;;1.70;;
17886;SDS011;9069;52.044;7.472;2022-07-29T12:11:20;3.80;;;1.83;;
17886;SDS011;9069;52.044;7.472;2022-07-29T12:13:48;8.40;;;1.85;;
17886;SDS011;9069;52.044;7.472;2022-07-29T12:16:16;3.40;;;2.00;;
17886;SDS011;9069;52.044;7.472;2022-07-29T12:18:55;5.65;;;1.70;;
17886;SDS011;9069;52.044;7.472;2022-07-29T12:21:23;6.82;;;1.85;;
17886;SDS011;9069;52.044;7.472;2022-07-29T12:23:54;6.68;;;2.15;;
17886;SDS011;9069;52.044;7.472;2022-07-29T12:26:52;4.72;;;2.10;;
17886;SDS011;9069;52.044;7.472;2022-07-29T12:29:23;3.22;;;1.80;;
17886;SDS011;9069;52.044;7.472;2022-07-29T12:32:01;13.00;;;2.22;;
17886;SDS011;9069;52.044;7.472;2022-07-29T12:34:29;7.82;;;1.77;;
17886;SDS011;9069;52.044;7.472;2022-07-29T12:36:56;6.47;;;2.10;;
17886;SDS011;9069;52.044;7.472;2022-07-29T12:39:23;8.07;;;1.88;;
17886;SDS011;9069;52.044;7.472;2022-07-29T12:41:53;5.78;;;2.08;;
17886;SDS011;9069;52.044;7.472;2022-07-29T12:47:13;11.25;;;2.05;;
17886;SDS011;9069;52.044;7.472;2022-07-29T12:49:40;5.53;;;2.20;;
17886;SDS011;9069;52.044;7.472;2022-07-29T12:52:29;8.82;;;2.15;;
17886;SDS011;9069;52.044;7.472;2022-07-29T12:54:58;10.23;;;2.25;;
17886;SDS011;9069;52.044;7.472;2022-07-29T12:57:25;6.90;;;2.60;;
17886;SDS011;9069;52.044;7.472;2022-07-29T13:00:08;6.55;;;2.13;;
17886;SDS011;9069;52.044;7.472;2022-07-29T13:02:37;5.25;;;2.13;;
17886;SDS011;9069;52.044;7.472;2022-07-29T13:05:04;4.15;;;1.80;;
17886;SDS011;9069;52.044;7.472;2022-07-29T13:07:32;5.32;;;1.90;;
17886;SDS011;9069;52.044;7.472;2022-07-29T13:10:22;6.22;;;2.40;;
17886;SDS011;9069;52.044;7.472;2022-07-29T13:13:09;4.45;;;1.90;;
17886;SDS011;9069;52.044;7.472;2022-07-29T13:15:38;6.53;;;2.70;;
17886;SDS011;9069;52.044;7.472;2022-07-29T13:20:54;8.40;;;1.90;;
17886;SDS011;9069;52.044;7.472;2022-07-29T13:23:21;4.60;;;2.30;;
17886;SDS011;9069;52.044;7.472;2022-07-29T13:25:48;5.72;;;2.47;;
17886;SDS011;9069;52.044;7.472;2022-07-29T13:28:15;6.40;;;2.03;;
17886;SDS011;9069;52.044;7.472;2022-07-29T13:30:42;7.93;;;2.00;;
17886;SDS011;9069;52.044;7.472;2022-07-29T13:33:10;5.15;;;2.13;;
17886;SDS011;9069;52.044;7.472;2022-07-29T13:35:36;4.00;;;1.80;;
17886;SDS011;9069;52.044;7.472;2022-07-29T13:38:05;4.82;;;2.03;;
17886;SDS011;9069;52.044;7.472;2022-07-29T13:40:32;5.45;;;1.88;;
17886;SDS011;9069;52.044;7.472;2022-07-29T13:43:01;4.97;;;2.10;;
17886;SDS011;9069;52.044;7.472;2022-07-29T13:45:29;4.70;;;1.95;;
17886;SDS011;9069;52.044;7.472;2022-07-29T13:47:55;6.50;;;2.40;;
17886;SDS011;9069;52.044;7.472;2022-07-29T13:50:22;6.55;;;2.05;;
17886;SDS011;9069;52.044;7.472;2022-07-29T13:52:49;5.60;;;1.90;;
17886;SDS011;9069;52.044;7.472;2022-07-29T13:55:16;4.15;;;1.80;;
17886;SDS011;9069;52.044;7.472;2022-07-29T13:57:43;2.67;;;1.88;;
17886;SDS011;9069;52.044;7.472;2022-07-29T14:00:10;6.97;;;2.00;;
17886;SDS011;9069;52.044;7.472;2022-07-29T14:02:38;4.57;;;2.10;;
17886;SDS011;9069;52.044;7.472;2022-07-29T14:05:05;5.03;;;1.60;;
17886;SDS011;9069;52.044;7.472;2022-07-29T14:07:34;7.65;;;1.85;;
17886;SDS011;9069;52.044;7.472;2022-07-29T14:10:00;2.53;;;1.52;;
17886;SDS011;9069;52.044;7.472;2022-07-29T14:12:27;4.63;;;1.98;;
17886;SDS011;9069;52.044;7.472;2022-07-29T14:14:54;7.05;;;1.63;;
17886;SDS011;9069;52.044;7.472;2022-07-29T14:17:20;7.68;;;1.48;;
17886;SDS011;9069;52.044;7.472;2022-07-29T14:19:47;3.95;;;1.70;;
17886;SDS011;9069;52.044;7.472;2022-07-29T14:22:14;6.18;;;1.70;;
17886;SDS011;9069;52.044;7.472;2022-07-29T14:24:41;3.92;;;1.70;;
17886;SDS011;9069;52.044;7.472;2022-07-29T14:27:08;6.40;;;1.98;;
17886;SDS011;9069;52.044;7.472;2022-07-29T14:29:35;3.50;;;1.77;;
17886;SDS011;9069;52.044;7.472;2022-07-29T14:32:07;6.35;;;1.85;;
17886;SDS011;9069;52.044;7.472;2022-07-29T14:34:36;5.07;;;1.63;;
17886;SDS011;9069;52.044;7.472;2022-07-29T14:37:03;2.85;;;1.75;;
17886;SDS011;9069;52.044;7.472;2022-07-29T14:39:34;6.70;;;1.60;;
17886;SDS011;9069;52.044;7.472;2022-07-29T14:42:08;6.22;;;1.98;;
17886;SDS011;9069;52.044;7.472;2022-07-29T14:44:38;2.47;;;1.50;;
17886;SDS011;9069;52.044;7.472;2022-07-29T14:47:06;4.43;;;1.60;;
17886;SDS011;9069;52.044;7.472;2022-07-29T14:49:33;4.28;;;1.50;;
17886;SDS011;9069;52.044;7.472;2022-07-29T14:52:01;4.55;;;1.67;;
17886;SDS011;9069;52.044;7.472;2022-07-29T14:54:27;4.80;;;1.70;;
17886;SDS011;9069;52.044;7.472;2022-07-29T14:56:54;3.75;;;1.65;;
17886;SDS011;9069;52.044;7.472;2022-07-29T14:59:23;3.85;;;1.67;;
17886;SDS011;9069;52.044;7.472;2022-07-29T15:01:51;5.13;;;1.88;;
17886;SDS011;9069;52.044;7.472;2022-07-29T15:04:17;4.47;;;1.75;;
17886;SDS011;9069;52.044;7.472;2022-07-29T15:06:45;7.35;;;1.85;;
17886;SDS011;9069;52.044;7.472;2022-07-29T15:09:11;2.20;;;1.52;;
17886;SDS011;9069;52.044;7.472;2022-07-29T15:11:38;5.70;;;1.63;;
17886;SDS011;9069;52.044;7.472;2022-07-29T15:14:05;5.75;;;1.77;;
17886;SDS011;9069;52.044;7.472;2022-07-29T15:16:32;5.55;;;1.90;;
17886;SDS011;9069;52.044;7.472;2022-07-29T15:19:01;5.95;;;1.70;;
17886;SDS011;9069;52.044;7.472;2022-07-29T15:21:28;6.20;;;1.75;;
17886;SDS011;9069;52.044;7.472;2022-07-29T15:23:55;3.97;;;1.60;;
17886;SDS011;9069;52.044;7.472;2022-07-29T15:26:22;4.03;;;1.60;;
17886;SDS011;9069;52.044;7.472;2022-07-29T15:28:49;5.97;;;1.55;;
17886;SDS011;9069;52.044;7.472;2022-07-29T15:31:15;5.30;;;1.75;;
17886;SDS011;9069;52.044;7.472;2022-07-29T15:33:42;3.47;;;1.70;;
17886;SDS011;9069;52.044;7.472;2022-07-29T15:36:09;2.72;;;1.90;;
17886;SDS011;9069;52.044;7.472;2022-07-29T15:38:57;5.38;;;1.73;;
17886;SDS011;9069;52.044;7.472;2022-07-29T15:41:24;5.20;;;1.90;;
17886;SDS011;9069;52.044;7.472;2022-07-29T15:43:51;2.00;;;1.42;;
17886;SDS011;9069;52.044;7.472;2022-07-29T15:46:18;2.72;;;1.48;;
17886;SDS011;9069;52.044;7.472;2022-07-29T15:49:04;4.60;;;1.83;;
17886;SDS011;9069;52.044;7.472;2022-07-29T15:51:32;4.45;;;1.55;;
17886;SDS011;9069;52.044;7.472;2022-07-29T15:54:02;3.22;;;1.60;;
17886;SDS011;9069;52.044;7.472;2022-07-29T15:56:30;9.77;;;2.35;;
17886;SDS011;9069;52.044;7.472;2022-07-29T15:58:57;4.53;;;1.55;;
17886;SDS011;9069;52.044;7.472;2022-07-29T16:01:26;2.15;;;1.50;;
17886;SDS011;9069;52.044;7.472;2022-07-29T16:03:53;4.15;;;1.40;;
17886;SDS011;9069;52.044;7.472;2022-07-29T16:06:20;2.40;;;1.30;;
17886;SDS011;9069;52.044;7.472;2022-07-29T16:08:46;2.72;;;1.48;;
17886;SDS011;9069;52.044;7.472;2022-07-29T16:11:13;4.60;;;1.65;;
17886;SDS011;9069;52.044;7.472;2022-07-29T16:13:40;2.65;;;1.40;;
17886;SDS011;9069;52.044;7.472;2022-07-29T16:16:07;7.18;;;2.10;;
17886;SDS011;9069;52.044;7.472;2022-07-29T16:18:34;2.22;;;1.45;;